This is the latest recevied weather packets stored in our database for station/object W5SDC. If no packets are shown the sender has not sent any weather packets the latest 10 day(s).
| Time | Temp. | Humidity | Pressure | Rain* | Wind** | Luminosity | Snow |
|---|---|---|---|---|---|---|---|
| 1777504820 | 16.67° C | 98% | 1012.6 hPa | 0 mm | - | - | - |
| 1777503922 | 17.78° C | 96% | 1012.9 hPa | 0 mm | - | - | - |
| 1777502144 | 17.78° C | 96% | 1012.7 hPa | 0 mm | - | - | - |
| 1777501226 | 18.33° C | 95% | 1012.4 hPa | 0 mm | - | - | - |
| 1777500620 | 18.33° C | 95% | 1012.2 hPa | 0 mm | - | - | - |
| 1777499137 | 18.33° C | 95% | 1012.4 hPa | 0 mm | - | - | - |
| 1777497025 | 18.33° C | 96% | 1012.6 hPa | 0 mm | - | - | - |
| 1777496732 | 18.33° C | 96% | 1012.6 hPa | 0 mm | - | - | - |
| 1777493119 | 18.89° C | 98% | 1014 hPa | 0 mm | - | - | - |
| 1777492531 | 18.89° C | 98% | 1014.2 hPa | 0 mm | - | - | - |
| 1777491926 | 19.44° C | 98% | 1014.3 hPa | 0 mm | - | - | - |
| 1777491028 | 20° C | 98% | 1014.2 hPa | 0 mm | - | - | - |
| 1777490447 | 20° C | 98% | 1014 hPa | 0 mm | - | - | - |
| 1777489837 | 20.56° C | 97% | 1013.8 hPa | 0 mm | - | - | - |
| 1777489524 | 21.11° C | 97% | 1013.8 hPa | 0 mm | - | - | - |
| 1777487121 | 22.22° C | 95% | 1013.3 hPa | 0 mm | - | - | - |
| 1777486848 | 22.22° C | 94% | 1013.3 hPa | 0 mm | - | - | - |
| 1777482315 | 28.89° C | 84% | 1013.9 hPa | 0 mm | - | - | - |
| 1777482042 | 28.89° C | 83% | 1014 hPa | 0 mm | - | - | - |
| 1777480224 | 28.89° C | 86% | 1013.7 hPa | 0 mm | - | - | - |
| 1777479619 | 28.33° C | 89% | 1013.8 hPa | 0 mm | - | - | - |
| 1777479052 | 27.22° C | 89% | 1014.3 hPa | 0 mm | - | - | - |
| 1777477821 | 26.67° C | 94% | 1014.2 hPa | 0.25 mm | - | - | - |
| 1777474832 | 24.44° C | 99% | 1014.5 hPa | 0 mm | - | - | - |
| 1777474226 | 24.44° C | 99% | 1014.3 hPa | 0 mm | - | - | - |
* Rain latest hour (hover to see other rain measurements)
** Current wind speed in m/s (hover to see current wind gust speed)